sensor_id;sensor_type;location;lat;lon;timestamp;temperature;humidity
2603;DHT22;1311;47.966;7.958;2022-12-10T00:01:21;2.20;99.90
2603;DHT22;1311;47.966;7.958;2022-12-10T00:03:48;2.20;99.90
2603;DHT22;1311;47.966;7.958;2022-12-10T00:06:16;2.20;99.90
2603;DHT22;1311;47.966;7.958;2022-12-10T00:08:43;2.20;99.90
2603;DHT22;1311;47.966;7.958;2022-12-10T00:11:12;2.20;99.90
2603;DHT22;1311;47.966;7.958;2022-12-10T00:13:42;2.20;99.90
2603;DHT22;1311;47.966;7.958;2022-12-10T00:16:11;2.30;99.90
2603;DHT22;1311;47.966;7.958;2022-12-10T00:18:39;2.30;99.90
2603;DHT22;1311;47.966;7.958;2022-12-10T00:21:07;2.30;99.90
2603;DHT22;1311;47.966;7.958;2022-12-10T00:23:35;2.30;99.90
2603;DHT22;1311;47.966;7.958;2022-12-10T00:26:03;2.30;99.90
2603;DHT22;1311;47.966;7.958;2022-12-10T00:28:30;2.40;99.90
2603;DHT22;1311;47.966;7.958;2022-12-10T00:31:03;2.40;99.90
2603;DHT22;1311;47.966;7.958;2022-12-10T00:33:30;2.40;99.90
2603;DHT22;1311;47.966;7.958;2022-12-10T00:36:02;2.40;99.90
2603;DHT22;1311;47.966;7.958;2022-12-10T00:38:29;2.40;99.90
2603;DHT22;1311;47.966;7.958;2022-12-10T00:40:55;2.40;99.90
2603;DHT22;1311;47.966;7.958;2022-12-10T00:43:22;2.40;99.90
2603;DHT22;1311;47.966;7.958;2022-12-10T00:45:49;2.30;99.90
2603;DHT22;1311;47.966;7.958;2022-12-10T00:48:17;2.30;99.90
2603;DHT22;1311;47.966;7.958;2022-12-10T00:50:44;2.30;99.90
2603;DHT22;1311;47.966;7.958;2022-12-10T00:53:20;2.30;99.90
2603;DHT22;1311;47.966;7.958;2022-12-10T00:55:47;2.40;99.90
2603;DHT22;1311;47.966;7.958;2022-12-10T00:58:13;2.40;99.90
2603;DHT22;1311;47.966;7.958;2022-12-10T01:00:40;2.40;99.90
2603;DHT22;1311;47.966;7.958;2022-12-10T01:03:07;2.50;99.90
2603;DHT22;1311;47.966;7.958;2022-12-10T01:05:35;2.50;99.90
2603;DHT22;1311;47.966;7.958;2022-12-10T01:08:02;2.50;99.90
2603;DHT22;1311;47.966;7.958;2022-12-10T01:10:29;2.50;99.90
2603;DHT22;1311;47.966;7.958;2022-12-10T01:12:56;2.50;99.90
2603;DHT22;1311;47.966;7.958;2022-12-10T01:15:23;2.50;99.90
2603;DHT22;1311;47.966;7.958;2022-12-10T01:17:50;2.60;99.90
2603;DHT22;1311;47.966;7.958;2022-12-10T01:20:16;2.60;99.90
2603;DHT22;1311;47.966;7.958;2022-12-10T01:22:45;2.60;99.90
2603;DHT22;1311;47.966;7.958;2022-12-10T01:25:12;2.60;99.90
2603;DHT22;1311;47.966;7.958;2022-12-10T01:27:39;2.50;99.90
2603;DHT22;1311;47.966;7.958;2022-12-10T01:30:07;2.50;99.90
2603;DHT22;1311;47.966;7.958;2022-12-10T01:32:34;2.50;99.90
2603;DHT22;1311;47.966;7.958;2022-12-10T01:35:00;2.50;99.90
2603;DHT22;1311;47.966;7.958;2022-12-10T01:37:27;2.50;99.90
2603;DHT22;1311;47.966;7.958;2022-12-10T01:39:55;2.30;99.90
2603;DHT22;1311;47.966;7.958;2022-12-10T01:42:22;2.40;99.90
2603;DHT22;1311;47.966;7.958;2022-12-10T01:45:03;2.40;99.90
2603;DHT22;1311;47.966;7.958;2022-12-10T01:47:30;2.40;99.90
2603;DHT22;1311;47.966;7.958;2022-12-10T01:49:57;2.40;99.90
2603;DHT22;1311;47.966;7.958;2022-12-10T01:52:26;2.40;99.90
2603;DHT22;1311;47.966;7.958;2022-12-10T01:54:55;2.40;99.90
2603;DHT22;1311;47.966;7.958;2022-12-10T01:57:23;2.50;99.90
2603;DHT22;1311;47.966;7.958;2022-12-10T01:59:53;2.60;99.90
2603;DHT22;1311;47.966;7.958;2022-12-10T02:02:29;2.60;99.90
2603;DHT22;1311;47.966;7.958;2022-12-10T02:05:05;2.60;99.90
2603;DHT22;1311;47.966;7.958;2022-12-10T02:07:41;2.60;99.90
2603;DHT22;1311;47.966;7.958;2022-12-10T02:10:32;2.50;99.90
2603;DHT22;1311;47.966;7.958;2022-12-10T02:13:05;2.50;99.90
2603;DHT22;1311;47.966;7.958;2022-12-10T02:15:36;2.50;99.90
2603;DHT22;1311;47.966;7.958;2022-12-10T02:18:05;2.50;99.90
2603;DHT22;1311;47.966;7.958;2022-12-10T02:20:37;2.60;99.90
2603;DHT22;1311;47.966;7.958;2022-12-10T02:23:07;2.50;99.90
2603;DHT22;1311;47.966;7.958;2022-12-10T02:25:40;2.60;99.90
2603;DHT22;1311;47.966;7.958;2022-12-10T02:28:17;2.60;99.90
2603;DHT22;1311;47.966;7.958;2022-12-10T02:30:47;2.60;99.90
2603;DHT22;1311;47.966;7.958;2022-12-10T02:33:17;2.60;99.90
2603;DHT22;1311;47.966;7.958;2022-12-10T02:35:47;2.60;99.90
2603;DHT22;1311;47.966;7.958;2022-12-10T02:38:17;2.60;99.90
2603;DHT22;1311;47.966;7.958;2022-12-10T02:40:47;2.50;99.90
2603;DHT22;1311;47.966;7.958;2022-12-10T02:43:15;2.50;99.90
2603;DHT22;1311;47.966;7.958;2022-12-10T02:45:43;2.50;99.90
2603;DHT22;1311;47.966;7.958;2022-12-10T02:48:13;2.60;99.90
2603;DHT22;1311;47.966;7.958;2022-12-10T02:50:41;2.60;99.90
2603;DHT22;1311;47.966;7.958;2022-12-10T02:53:07;2.70;99.90
2603;DHT22;1311;47.966;7.958;2022-12-10T02:55:49;2.70;99.90
2603;DHT22;1311;47.966;7.958;2022-12-10T02:58:24;2.70;99.90
2603;DHT22;1311;47.966;7.958;2022-12-10T03:00:57;2.60;99.90
2603;DHT22;1311;47.966;7.958;2022-12-10T03:03:34;2.60;99.90
2603;DHT22;1311;47.966;7.958;2022-12-10T03:06:08;2.60;99.90
2603;DHT22;1311;47.966;7.958;2022-12-10T03:08:40;2.60;99.90
2603;DHT22;1311;47.966;7.958;2022-12-10T03:11:11;2.70;99.90
2603;DHT22;1311;47.966;7.958;2022-12-10T03:13:43;2.70;99.90
2603;DHT22;1311;47.966;7.958;2022-12-10T03:16:12;2.70;99.90
2603;DHT22;1311;47.966;7.958;2022-12-10T03:18:42;2.70;99.90
2603;DHT22;1311;47.966;7.958;2022-12-10T03:21:12;2.60;99.90
2603;DHT22;1311;47.966;7.958;2022-12-10T03:23:43;2.60;99.90
2603;DHT22;1311;47.966;7.958;2022-12-10T03:26:13;2.60;99.90
2603;DHT22;1311;47.966;7.958;2022-12-10T03:28:45;2.60;99.90
2603;DHT22;1311;47.966;7.958;2022-12-10T03:31:14;2.70;99.90
2603;DHT22;1311;47.966;7.958;2022-12-10T03:33:43;2.70;99.90
2603;DHT22;1311;47.966;7.958;2022-12-10T03:36:12;2.70;99.90
2603;DHT22;1311;47.966;7.958;2022-12-10T03:38:40;2.70;99.90
2603;DHT22;1311;47.966;7.958;2022-12-10T03:41:07;2.70;99.90
2603;DHT22;1311;47.966;7.958;2022-12-10T03:43:34;2.80;99.90
2603;DHT22;1311;47.966;7.958;2022-12-10T03:46:01;2.80;99.90
2603;DHT22;1311;47.966;7.958;2022-12-10T03:48:28;2.80;99.90
2603;DHT22;1311;47.966;7.958;2022-12-10T03:50:56;2.80;99.90
2603;DHT22;1311;47.966;7.958;2022-12-10T03:53:23;2.80;99.90
2603;DHT22;1311;47.966;7.958;2022-12-10T03:55:50;2.80;99.90
2603;DHT22;1311;47.966;7.958;2022-12-10T03:58:16;2.80;99.90
2603;DHT22;1311;47.966;7.958;2022-12-10T04:00:43;2.70;99.90
2603;DHT22;1311;47.966;7.958;2022-12-10T04:03:10;2.70;99.90
2603;DHT22;1311;47.966;7.958;2022-12-10T04:05:37;2.80;99.90
2603;DHT22;1311;47.966;7.958;2022-12-10T04:08:05;2.70;99.90
2603;DHT22;1311;47.966;7.958;2022-12-10T04:10:35;2.60;99.90
2603;DHT22;1311;47.966;7.958;2022-12-10T04:13:02;2.70;99.90
2603;DHT22;1311;47.966;7.958;2022-12-10T04:15:46;2.70;99.90
2603;DHT22;1311;47.966;7.958;2022-12-10T04:18:30;2.70;99.90
2603;DHT22;1311;47.966;7.958;2022-12-10T04:20:57;2.70;99.90
2603;DHT22;1311;47.966;7.958;2022-12-10T04:23:42;2.70;99.90
2603;DHT22;1311;47.966;7.958;2022-12-10T04:26:26;2.70;99.90
2603;DHT22;1311;47.966;7.958;2022-12-10T04:29:10;2.60;99.90
2603;DHT22;1311;47.966;7.958;2022-12-10T04:31:37;2.50;99.90
2603;DHT22;1311;47.966;7.958;2022-12-10T04:34:04;2.50;99.90
2603;DHT22;1311;47.966;7.958;2022-12-10T04:36:31;2.60;99.90
2603;DHT22;1311;47.966;7.958;2022-12-10T04:38:59;2.60;99.90
2603;DHT22;1311;47.966;7.958;2022-12-10T04:41:26;2.60;99.90
2603;DHT22;1311;47.966;7.958;2022-12-10T04:43:53;2.60;99.90
2603;DHT22;1311;47.966;7.958;2022-12-10T04:46:20;2.60;99.90
2603;DHT22;1311;47.966;7.958;2022-12-10T04:48:47;2.70;99.90
2603;DHT22;1311;47.966;7.958;2022-12-10T04:51:13;2.70;99.90
2603;DHT22;1311;47.966;7.958;2022-12-10T04:53:40;2.70;99.90
2603;DHT22;1311;47.966;7.958;2022-12-10T04:56:10;2.60;99.90
2603;DHT22;1311;47.966;7.958;2022-12-10T04:58:37;2.60;99.90
2603;DHT22;1311;47.966;7.958;2022-12-10T05:01:04;2.60;99.90
2603;DHT22;1311;47.966;7.958;2022-12-10T05:03:32;2.60;99.90
2603;DHT22;1311;47.966;7.958;2022-12-10T05:06:00;2.60;99.90
2603;DHT22;1311;47.966;7.958;2022-12-10T05:08:28;2.60;99.90
2603;DHT22;1311;47.966;7.958;2022-12-10T05:10:54;2.60;99.90
2603;DHT22;1311;47.966;7.958;2022-12-10T05:13:23;2.50;99.90
2603;DHT22;1311;47.966;7.958;2022-12-10T05:15:49;2.60;99.90
2603;DHT22;1311;47.966;7.958;2022-12-10T05:18:16;2.60;99.90
2603;DHT22;1311;47.966;7.958;2022-12-10T05:20:43;2.60;99.90
2603;DHT22;1311;47.966;7.958;2022-12-10T05:23:10;2.60;99.90
2603;DHT22;1311;47.966;7.958;2022-12-10T05:26:01;2.60;99.90
2603;DHT22;1311;47.966;7.958;2022-12-10T05:28:31;2.50;99.90
2603;DHT22;1311;47.966;7.958;2022-12-10T05:30:59;2.50;99.90
2603;DHT22;1311;47.966;7.958;2022-12-10T05:33:27;2.50;99.90
2603;DHT22;1311;47.966;7.958;2022-12-10T05:35:55;2.50;99.90
2603;DHT22;1311;47.966;7.958;2022-12-10T05:38:23;2.50;99.90
2603;DHT22;1311;47.966;7.958;2022-12-10T05:40:51;2.60;99.90
2603;DHT22;1311;47.966;7.958;2022-12-10T05:43:17;2.60;99.90
2603;DHT22;1311;47.966;7.958;2022-12-10T05:45:46;2.60;99.90
2603;DHT22;1311;47.966;7.958;2022-12-10T05:48:15;2.60;99.90
2603;DHT22;1311;47.966;7.958;2022-12-10T05:50:42;2.60;99.90
2603;DHT22;1311;47.966;7.958;2022-12-10T05:53:08;2.60;99.90
2603;DHT22;1311;47.966;7.958;2022-12-10T05:55:35;2.60;99.90
2603;DHT22;1311;47.966;7.958;2022-12-10T05:58:02;2.60;99.90
2603;DHT22;1311;47.966;7.958;2022-12-10T06:00:29;2.60;99.90
2603;DHT22;1311;47.966;7.958;2022-12-10T06:02:57;2.60;99.90
2603;DHT22;1311;47.966;7.958;2022-12-10T06:05:24;2.60;99.90
2603;DHT22;1311;47.966;7.958;2022-12-10T06:07:51;2.60;99.90
2603;DHT22;1311;47.966;7.958;2022-12-10T06:10:18;2.60;99.90
2603;DHT22;1311;47.966;7.958;2022-12-10T06:12:45;2.50;99.90
2603;DHT22;1311;47.966;7.958;2022-12-10T06:15:11;2.50;99.90
2603;DHT22;1311;47.966;7.958;2022-12-10T06:17:38;2.50;99.90
2603;DHT22;1311;47.966;7.958;2022-12-10T06:20:07;2.50;99.90
2603;DHT22;1311;47.966;7.958;2022-12-10T06:22:34;2.50;99.90
2603;DHT22;1311;47.966;7.958;2022-12-10T06:25:01;2.50;99.90
2603;DHT22;1311;47.966;7.958;2022-12-10T06:27:30;2.50;99.90
2603;DHT22;1311;47.966;7.958;2022-12-10T06:29:57;2.50;99.90
2603;DHT22;1311;47.966;7.958;2022-12-10T06:32:24;2.40;99.90
2603;DHT22;1311;47.966;7.958;2022-12-10T06:34:51;2.40;99.90
2603;DHT22;1311;47.966;7.958;2022-12-10T06:37:19;2.40;99.90
2603;DHT22;1311;47.966;7.958;2022-12-10T06:39:46;2.40;99.90
2603;DHT22;1311;47.966;7.958;2022-12-10T06:42:13;2.40;99.90
2603;DHT22;1311;47.966;7.958;2022-12-10T06:44:40;2.40;99.90
2603;DHT22;1311;47.966;7.958;2022-12-10T06:47:07;2.30;99.90
2603;DHT22;1311;47.966;7.958;2022-12-10T06:49:33;2.40;99.90
2603;DHT22;1311;47.966;7.958;2022-12-10T06:52:00;2.40;99.90
2603;DHT22;1311;47.966;7.958;2022-12-10T06:54:28;2.40;99.90
2603;DHT22;1311;47.966;7.958;2022-12-10T06:56:56;2.30;99.90
2603;DHT22;1311;47.966;7.958;2022-12-10T06:59:23;2.30;99.90
2603;DHT22;1311;47.966;7.958;2022-12-10T07:01:50;2.30;99.90
2603;DHT22;1311;47.966;7.958;2022-12-10T07:04:17;2.30;99.90
2603;DHT22;1311;47.966;7.958;2022-12-10T07:06:44;2.30;99.90
2603;DHT22;1311;47.966;7.958;2022-12-10T07:09:13;2.30;99.90
2603;DHT22;1311;47.966;7.958;2022-12-10T07:11:42;2.40;99.90
2603;DHT22;1311;47.966;7.958;2022-12-10T07:14:13;2.30;99.90
2603;DHT22;1311;47.966;7.958;2022-12-10T07:16:40;2.30;99.90
2603;DHT22;1311;47.966;7.958;2022-12-10T07:19:09;2.20;99.90
2603;DHT22;1311;47.966;7.958;2022-12-10T07:21:38;2.20;99.90
2603;DHT22;1311;47.966;7.958;2022-12-10T07:24:08;2.20;99.90
2603;DHT22;1311;47.966;7.958;2022-12-10T07:26:38;2.20;99.90
2603;DHT22;1311;47.966;7.958;2022-12-10T07:29:09;2.20;99.90
2603;DHT22;1311;47.966;7.958;2022-12-10T07:31:36;2.20;99.90
2603;DHT22;1311;47.966;7.958;2022-12-10T07:34:03;2.20;99.90
2603;DHT22;1311;47.966;7.958;2022-12-10T07:36:30;2.20;99.90
2603;DHT22;1311;47.966;7.958;2022-12-10T07:38:57;2.30;99.90
2603;DHT22;1311;47.966;7.958;2022-12-10T07:41:24;2.30;99.90
2603;DHT22;1311;47.966;7.958;2022-12-10T07:43:52;2.30;99.90
2603;DHT22;1311;47.966;7.958;2022-12-10T07:46:22;2.30;99.90
2603;DHT22;1311;47.966;7.958;2022-12-10T07:48:49;2.40;99.90
2603;DHT22;1311;47.966;7.958;2022-12-10T07:51:18;2.40;99.90
2603;DHT22;1311;47.966;7.958;2022-12-10T07:53:46;2.40;99.90
2603;DHT22;1311;47.966;7.958;2022-12-10T07:56:13;2.40;99.90
2603;DHT22;1311;47.966;7.958;2022-12-10T07:58:42;2.50;99.90
2603;DHT22;1311;47.966;7.958;2022-12-10T08:01:11;2.50;99.90
2603;DHT22;1311;47.966;7.958;2022-12-10T08:03:39;2.60;99.90
2603;DHT22;1311;47.966;7.958;2022-12-10T08:06:08;2.60;99.90
2603;DHT22;1311;47.966;7.958;2022-12-10T08:08:37;2.60;99.90
2603;DHT22;1311;47.966;7.958;2022-12-10T08:11:06;2.70;99.90
2603;DHT22;1311;47.966;7.958;2022-12-10T08:13:34;2.80;99.90
2603;DHT22;1311;47.966;7.958;2022-12-10T08:16:01;3.10;99.90
2603;DHT22;1311;47.966;7.958;2022-12-10T08:18:29;3.10;99.90
2603;DHT22;1311;47.966;7.958;2022-12-10T08:20:57;3.10;99.90
2603;DHT22;1311;47.966;7.958;2022-12-10T08:23:24;3.10;99.90
2603;DHT22;1311;47.966;7.958;2022-12-10T08:25:51;3.00;99.90
2603;DHT22;1311;47.966;7.958;2022-12-10T08:28:18;3.10;99.90
2603;DHT22;1311;47.966;7.958;2022-12-10T08:30:45;3.00;99.90
2603;DHT22;1311;47.966;7.958;2022-12-10T08:33:12;3.10;99.90
2603;DHT22;1311;47.966;7.958;2022-12-10T08:35:39;3.10;99.90
2603;DHT22;1311;47.966;7.958;2022-12-10T08:38:08;3.10;99.90
2603;DHT22;1311;47.966;7.958;2022-12-10T08:40:38;3.10;99.90
2603;DHT22;1311;47.966;7.958;2022-12-10T08:43:05;3.30;99.90
2603;DHT22;1311;47.966;7.958;2022-12-10T08:45:32;3.30;99.90
2603;DHT22;1311;47.966;7.958;2022-12-10T08:47:59;3.20;99.90
2603;DHT22;1311;47.966;7.958;2022-12-10T08:50:26;3.20;99.90
2603;DHT22;1311;47.966;7.958;2022-12-10T08:52:53;3.30;99.90
2603;DHT22;1311;47.966;7.958;2022-12-10T08:55:21;3.30;99.90
2603;DHT22;1311;47.966;7.958;2022-12-10T08:57:48;3.40;99.90
2603;DHT22;1311;47.966;7.958;2022-12-10T09:00:15;3.40;99.90
2603;DHT22;1311;47.966;7.958;2022-12-10T09:02:44;3.40;99.90
2603;DHT22;1311;47.966;7.958;2022-12-10T09:05:10;3.50;99.90
2603;DHT22;1311;47.966;7.958;2022-12-10T09:07:37;3.60;99.90
2603;DHT22;1311;47.966;7.958;2022-12-10T09:10:05;3.60;99.90
2603;DHT22;1311;47.966;7.958;2022-12-10T09:12:35;3.60;99.90
2603;DHT22;1311;47.966;7.958;2022-12-10T09:15:01;3.50;99.90
2603;DHT22;1311;47.966;7.958;2022-12-10T09:17:28;3.60;99.90
2603;DHT22;1311;47.966;7.958;2022-12-10T09:19:55;3.60;99.90
2603;DHT22;1311;47.966;7.958;2022-12-10T09:22:22;3.60;99.90
2603;DHT22;1311;47.966;7.958;2022-12-10T09:24:49;3.60;99.90
2603;DHT22;1311;47.966;7.958;2022-12-10T09:27:15;3.40;99.90
2603;DHT22;1311;47.966;7.958;2022-12-10T09:29:44;3.50;99.90
2603;DHT22;1311;47.966;7.958;2022-12-10T09:32:10;3.50;99.90
2603;DHT22;1311;47.966;7.958;2022-12-10T09:34:37;3.50;99.90
2603;DHT22;1311;47.966;7.958;2022-12-10T09:37:04;3.60;99.90
2603;DHT22;1311;47.966;7.958;2022-12-10T09:39:31;3.60;99.90
2603;DHT22;1311;47.966;7.958;2022-12-10T09:42:13;3.60;99.90
2603;DHT22;1311;47.966;7.958;2022-12-10T09:44:54;3.50;99.90
2603;DHT22;1311;47.966;7.958;2022-12-10T09:47:26;3.50;99.90
2603;DHT22;1311;47.966;7.958;2022-12-10T09:49:59;3.50;99.90
2603;DHT22;1311;47.966;7.958;2022-12-10T09:52:35;3.40;99.90
2603;DHT22;1311;47.966;7.958;2022-12-10T09:55:05;3.30;99.90
2603;DHT22;1311;47.966;7.958;2022-12-10T09:57:38;3.30;99.90
2603;DHT22;1311;47.966;7.958;2022-12-10T10:00:19;3.20;99.90
2603;DHT22;1311;47.966;7.958;2022-12-10T10:02:46;3.20;99.90
2603;DHT22;1311;47.966;7.958;2022-12-10T10:05:20;3.20;99.90
2603;DHT22;1311;47.966;7.958;2022-12-10T10:07:50;3.10;99.90
2603;DHT22;1311;47.966;7.958;2022-12-10T10:10:23;3.10;99.90
2603;DHT22;1311;47.966;7.958;2022-12-10T10:12:53;3.10;99.90
2603;DHT22;1311;47.966;7.958;2022-12-10T10:15:27;3.10;99.90
2603;DHT22;1311;47.966;7.958;2022-12-10T10:17:57;3.10;99.90
2603;DHT22;1311;47.966;7.958;2022-12-10T10:20:25;3.10;99.90
2603;DHT22;1311;47.966;7.958;2022-12-10T10:22:53;3.10;99.90
2603;DHT22;1311;47.966;7.958;2022-12-10T10:25:22;3.20;99.90
2603;DHT22;1311;47.966;7.958;2022-12-10T10:27:49;3.20;99.90
2603;DHT22;1311;47.966;7.958;2022-12-10T10:30:19;3.10;99.90
2603;DHT22;1311;47.966;7.958;2022-12-10T10:32:52;3.10;99.90
2603;DHT22;1311;47.966;7.958;2022-12-10T10:35:28;3.10;99.90
2603;DHT22;1311;47.966;7.958;2022-12-10T10:38:00;3.20;99.90
2603;DHT22;1311;47.966;7.958;2022-12-10T10:40:31;3.10;99.90
2603;DHT22;1311;47.966;7.958;2022-12-10T10:42:59;3.10;99.90
2603;DHT22;1311;47.966;7.958;2022-12-10T10:45:38;3.00;99.90
2603;DHT22;1311;47.966;7.958;2022-12-10T10:48:11;2.90;99.90
2603;DHT22;1311;47.966;7.958;2022-12-10T10:50:41;2.90;99.90
2603;DHT22;1311;47.966;7.958;2022-12-10T10:53:26;2.90;99.90
2603;DHT22;1311;47.966;7.958;2022-12-10T10:55:56;2.90;99.90
2603;DHT22;1311;47.966;7.958;2022-12-10T10:58:25;2.80;99.90
2603;DHT22;1311;47.966;7.958;2022-12-10T11:00:57;2.90;99.90
2603;DHT22;1311;47.966;7.958;2022-12-10T11:03:27;2.90;99.90
2603;DHT22;1311;47.966;7.958;2022-12-10T11:05:56;2.90;99.90
2603;DHT22;1311;47.966;7.958;2022-12-10T11:08:25;2.90;99.90
2603;DHT22;1311;47.966;7.958;2022-12-10T11:10:58;2.80;99.90
2603;DHT22;1311;47.966;7.958;2022-12-10T11:13:28;2.90;99.90
2603;DHT22;1311;47.966;7.958;2022-12-10T11:15:57;2.80;99.90
2603;DHT22;1311;47.966;7.958;2022-12-10T11:18:30;2.90;99.90
2603;DHT22;1311;47.966;7.958;2022-12-10T11:21:01;2.90;99.90
2603;DHT22;1311;47.966;7.958;2022-12-10T11:23:29;3.00;99.90
2603;DHT22;1311;47.966;7.958;2022-12-10T11:26:02;3.00;99.90
2603;DHT22;1311;47.966;7.958;2022-12-10T11:28:41;3.00;99.90
2603;DHT22;1311;47.966;7.958;2022-12-10T11:31:21;3.00;99.90
2603;DHT22;1311;47.966;7.958;2022-12-10T11:33:57;3.00;99.90
2603;DHT22;1311;47.966;7.958;2022-12-10T11:36:35;3.00;99.90
2603;DHT22;1311;47.966;7.958;2022-12-10T11:39:15;2.90;99.90
2603;DHT22;1311;47.966;7.958;2022-12-10T11:41:47;2.80;99.90
2603;DHT22;1311;47.966;7.958;2022-12-10T11:44:22;2.80;99.90
2603;DHT22;1311;47.966;7.958;2022-12-10T11:47:09;2.90;99.90
2603;DHT22;1311;47.966;7.958;2022-12-10T11:49:51;2.90;99.90
2603;DHT22;1311;47.966;7.958;2022-12-10T11:52:35;2.90;99.90
2603;DHT22;1311;47.966;7.958;2022-12-10T11:55:10;2.90;99.90
2603;DHT22;1311;47.966;7.958;2022-12-10T11:57:45;3.00;99.90
2603;DHT22;1311;47.966;7.958;2022-12-10T12:00:19;3.10;99.90
2603;DHT22;1311;47.966;7.958;2022-12-10T12:03:00;3.10;99.90
2603;DHT22;1311;47.966;7.958;2022-12-10T12:05:51;3.30;99.90
2603;DHT22;1311;47.966;7.958;2022-12-10T12:08:27;3.30;99.90
2603;DHT22;1311;47.966;7.958;2022-12-10T12:11:06;3.30;99.90
2603;DHT22;1311;47.966;7.958;2022-12-10T12:13:39;3.30;99.90
2603;DHT22;1311;47.966;7.958;2022-12-10T12:16:11;3.30;99.90
2603;DHT22;1311;47.966;7.958;2022-12-10T12:18:45;3.40;99.90
2603;DHT22;1311;47.966;7.958;2022-12-10T12:21:15;3.50;99.90
2603;DHT22;1311;47.966;7.958;2022-12-10T12:23:50;3.50;99.90
2603;DHT22;1311;47.966;7.958;2022-12-10T12:26:21;3.50;99.90
2603;DHT22;1311;47.966;7.958;2022-12-10T12:28:54;3.50;99.90
2603;DHT22;1311;47.966;7.958;2022-12-10T12:31:25;3.30;99.90
2603;DHT22;1311;47.966;7.958;2022-12-10T12:34:00;3.30;99.90
2603;DHT22;1311;47.966;7.958;2022-12-10T12:36:32;3.50;99.90
2603;DHT22;1311;47.966;7.958;2022-12-10T12:39:03;3.40;99.90
2603;DHT22;1311;47.966;7.958;2022-12-10T12:41:36;3.50;99.90
2603;DHT22;1311;47.966;7.958;2022-12-10T12:44:12;3.50;99.90
2603;DHT22;1311;47.966;7.958;2022-12-10T12:46:44;3.60;99.90
2603;DHT22;1311;47.966;7.958;2022-12-10T12:49:18;3.60;99.90
2603;DHT22;1311;47.966;7.958;2022-12-10T12:51:51;3.60;99.90
2603;DHT22;1311;47.966;7.958;2022-12-10T12:54:20;3.60;99.90
2603;DHT22;1311;47.966;7.958;2022-12-10T12:56:59;3.60;99.90
2603;DHT22;1311;47.966;7.958;2022-12-10T12:59:44;3.60;99.90
2603;DHT22;1311;47.966;7.958;2022-12-10T13:02:40;3.50;99.90
2603;DHT22;1311;47.966;7.958;2022-12-10T13:05:13;3.60;99.90
2603;DHT22;1311;47.966;7.958;2022-12-10T13:07:42;3.40;99.90
2603;DHT22;1311;47.966;7.958;2022-12-10T13:10:43;3.50;99.90
2603;DHT22;1311;47.966;7.958;2022-12-10T13:13:23;3.40;99.90
2603;DHT22;1311;47.966;7.958;2022-12-10T13:15:51;3.20;99.90
2603;DHT22;1311;47.966;7.958;2022-12-10T13:18:34;3.20;99.90
2603;DHT22;1311;47.966;7.958;2022-12-10T13:21:28;3.10;99.90
2603;DHT22;1311;47.966;7.958;2022-12-10T13:24:09;3.20;99.90
2603;DHT22;1311;47.966;7.958;2022-12-10T13:26:36;3.10;99.90
2603;DHT22;1311;47.966;7.958;2022-12-10T13:29:24;3.10;99.90
2603;DHT22;1311;47.966;7.958;2022-12-10T13:32:02;3.10;99.90
2603;DHT22;1311;47.966;7.958;2022-12-10T13:34:34;3.00;99.90
2603;DHT22;1311;47.966;7.958;2022-12-10T13:37:14;3.10;99.90
2603;DHT22;1311;47.966;7.958;2022-12-10T13:40:00;3.20;99.90
2603;DHT22;1311;47.966;7.958;2022-12-10T13:42:33;3.20;99.90
2603;DHT22;1311;47.966;7.958;2022-12-10T13:45:28;3.10;99.90
2603;DHT22;1311;47.966;7.958;2022-12-10T13:48:16;3.00;99.90
2603;DHT22;1311;47.966;7.958;2022-12-10T13:50:46;3.10;99.90
2603;DHT22;1311;47.966;7.958;2022-12-10T13:53:21;3.10;99.90
2603;DHT22;1311;47.966;7.958;2022-12-10T13:56:02;3.10;99.90
2603;DHT22;1311;47.966;7.958;2022-12-10T13:58:46;3.00;99.90
2603;DHT22;1311;47.966;7.958;2022-12-10T14:01:22;3.00;99.90
2603;DHT22;1311;47.966;7.958;2022-12-10T14:04:01;3.10;99.90
2603;DHT22;1311;47.966;7.958;2022-12-10T14:06:33;2.90;99.90
2603;DHT22;1311;47.966;7.958;2022-12-10T14:09:05;2.90;99.90
2603;DHT22;1311;47.966;7.958;2022-12-10T14:11:37;3.00;99.90
2603;DHT22;1311;47.966;7.958;2022-12-10T14:14:06;2.90;99.90
2603;DHT22;1311;47.966;7.958;2022-12-10T14:16:37;3.00;99.90
2603;DHT22;1311;47.966;7.958;2022-12-10T14:19:11;3.00;99.90
2603;DHT22;1311;47.966;7.958;2022-12-10T14:21:41;2.90;99.90
2603;DHT22;1311;47.966;7.958;2022-12-10T14:24:25;2.90;99.90
2603;DHT22;1311;47.966;7.958;2022-12-10T14:26:58;2.80;99.90
2603;DHT22;1311;47.966;7.958;2022-12-10T14:29:25;2.90;99.90
2603;DHT22;1311;47.966;7.958;2022-12-10T14:31:52;2.90;99.90
2603;DHT22;1311;47.966;7.958;2022-12-10T14:34:27;2.90;99.90
2603;DHT22;1311;47.966;7.958;2022-12-10T14:36:56;2.90;99.90
2603;DHT22;1311;47.966;7.958;2022-12-10T14:39:26;2.80;99.90
2603;DHT22;1311;47.966;7.958;2022-12-10T14:41:57;2.80;99.90
2603;DHT22;1311;47.966;7.958;2022-12-10T14:44:26;2.70;99.90
2603;DHT22;1311;47.966;7.958;2022-12-10T14:47:03;2.70;99.90
2603;DHT22;1311;47.966;7.958;2022-12-10T14:49:30;2.60;99.90
2603;DHT22;1311;47.966;7.958;2022-12-10T14:51:57;2.60;99.90
2603;DHT22;1311;47.966;7.958;2022-12-10T14:54:26;2.60;99.90
2603;DHT22;1311;47.966;7.958;2022-12-10T14:56:56;2.60;99.90
2603;DHT22;1311;47.966;7.958;2022-12-10T14:59:27;2.60;99.90
2603;DHT22;1311;47.966;7.958;2022-12-10T15:01:59;2.60;99.90
2603;DHT22;1311;47.966;7.958;2022-12-10T15:04:39;2.50;99.90
2603;DHT22;1311;47.966;7.958;2022-12-10T15:07:12;2.60;99.90
2603;DHT22;1311;47.966;7.958;2022-12-10T15:09:40;2.60;99.90
2603;DHT22;1311;47.966;7.958;2022-12-10T15:12:21;2.50;99.90
2603;DHT22;1311;47.966;7.958;2022-12-10T15:14:53;2.50;99.90
2603;DHT22;1311;47.966;7.958;2022-12-10T15:17:35;2.50;99.90
2603;DHT22;1311;47.966;7.958;2022-12-10T15:20:02;2.50;99.90
2603;DHT22;1311;47.966;7.958;2022-12-10T15:22:30;2.40;99.90
2603;DHT22;1311;47.966;7.958;2022-12-10T15:24:58;2.40;99.90
2603;DHT22;1311;47.966;7.958;2022-12-10T15:27:37;2.30;99.90
2603;DHT22;1311;47.966;7.958;2022-12-10T15:30:23;2.30;99.90
2603;DHT22;1311;47.966;7.958;2022-12-10T15:32:50;2.30;99.90
2603;DHT22;1311;47.966;7.958;2022-12-10T15:35:19;2.20;99.90
2603;DHT22;1311;47.966;7.958;2022-12-10T15:37:47;2.20;99.90
2603;DHT22;1311;47.966;7.958;2022-12-10T15:40:23;2.20;99.90
2603;DHT22;1311;47.966;7.958;2022-12-10T15:42:51;2.20;99.90
2603;DHT22;1311;47.966;7.958;2022-12-10T15:45:24;2.20;99.90
2603;DHT22;1311;47.966;7.958;2022-12-10T15:47:54;2.20;99.90
2603;DHT22;1311;47.966;7.958;2022-12-10T15:50:23;2.10;99.90
2603;DHT22;1311;47.966;7.958;2022-12-10T15:52:50;2.10;99.90
2603;DHT22;1311;47.966;7.958;2022-12-10T15:55:17;2.10;99.90
2603;DHT22;1311;47.966;7.958;2022-12-10T15:57:44;2.10;99.90
2603;DHT22;1311;47.966;7.958;2022-12-10T16:00:18;2.10;99.90
2603;DHT22;1311;47.966;7.958;2022-12-10T16:02:47;2.10;99.90
2603;DHT22;1311;47.966;7.958;2022-12-10T16:05:17;2.10;99.90
2603;DHT22;1311;47.966;7.958;2022-12-10T16:07:45;2.10;99.90
2603;DHT22;1311;47.966;7.958;2022-12-10T16:10:14;2.10;99.90
2603;DHT22;1311;47.966;7.958;2022-12-10T16:12:42;2.10;99.90
2603;DHT22;1311;47.966;7.958;2022-12-10T16:15:16;2.10;99.90
2603;DHT22;1311;47.966;7.958;2022-12-10T16:17:44;2.10;99.90
2603;DHT22;1311;47.966;7.958;2022-12-10T16:20:18;2.10;99.90
2603;DHT22;1311;47.966;7.958;2022-12-10T16:22:47;2.10;99.90
2603;DHT22;1311;47.966;7.958;2022-12-10T16:25:14;2.10;99.90
2603;DHT22;1311;47.966;7.958;2022-12-10T16:27:41;2.10;99.90
2603;DHT22;1311;47.966;7.958;2022-12-10T16:30:16;2.00;99.90
2603;DHT22;1311;47.966;7.958;2022-12-10T16:32:44;2.00;99.90
2603;DHT22;1311;47.966;7.958;2022-12-10T16:35:11;2.00;99.90
2603;DHT22;1311;47.966;7.958;2022-12-10T16:37:40;2.10;99.90
2603;DHT22;1311;47.966;7.958;2022-12-10T16:40:08;2.10;99.90